Sodville, Texas
Current Conditions -  °F | °C
As of 10:51 AM on Thursday 27 Nov 2014 (Local Time) from KCRP Reporting Station
Clear Clear  
Wind Chill: 64°   Ceiling: Unl
Heat Index: 64°   Visibility: 10mi
Dew Point: 51°   Wind: 9mph
Humidity: 63%   Direction: 50°NE
Pressure: 30.46"   Gusts: NA
Location:  28.0577°N, 97.5365°W
Report Text: KCRP 271651Z 05008KT 10SM CLR 18/11 A3046 RMK AO2 SLP315 T01780106 $
Loading
Personal Weather Stations






























Interactive Weather Map New forecast layout! Learn more

10-Day Weather Forecast

Advertisements
Track Severe Weather on mobile